sensor_id;sensor_type;location;lat;lon;timestamp;pressure;altitude;pressure_sealevel;temperature;humidity
40650;BME280;26342;42.826;23.992;2022-12-07T00:01:26;95302.25;;;4.14;100.00
40650;BME280;26342;42.826;23.992;2022-12-07T00:03:54;95308.50;;;4.20;100.00
40650;BME280;26342;42.826;23.992;2022-12-07T00:06:22;95299.38;;;4.16;100.00
40650;BME280;26342;42.826;23.992;2022-12-07T00:08:48;95299.38;;;4.16;100.00
40650;BME280;26342;42.826;23.992;2022-12-07T00:11:19;95296.16;;;4.14;100.00
40650;BME280;26342;42.826;23.992;2022-12-07T00:13:46;95298.66;;;4.09;100.00
40650;BME280;26342;42.826;23.992;2022-12-07T00:16:16;95294.31;;;3.96;100.00
40650;BME280;26342;42.826;23.992;2022-12-07T00:18:42;95301.25;;;3.90;100.00
40650;BME280;26342;42.826;23.992;2022-12-07T00:21:17;95307.25;;;3.79;100.00
40650;BME280;26342;42.826;23.992;2022-12-07T00:23:44;95302.22;;;3.71;100.00
40650;BME280;26342;42.826;23.992;2022-12-07T00:26:12;95301.25;;;3.66;100.00
40650;BME280;26342;42.826;23.992;2022-12-07T00:28:38;95313.25;;;3.61;100.00
40650;BME280;26342;42.826;23.992;2022-12-07T00:31:06;95301.53;;;3.57;100.00
40650;BME280;26342;42.826;23.992;2022-12-07T00:33:33;95306.38;;;3.60;100.00
40650;BME280;26342;42.826;23.992;2022-12-07T00:36:00;95301.50;;;3.64;100.00
40650;BME280;26342;42.826;23.992;2022-12-07T00:38:28;95298.22;;;3.62;100.00
40650;BME280;26342;42.826;23.992;2022-12-07T00:40:59;95307.34;;;3.66;100.00
40650;BME280;26342;42.826;23.992;2022-12-07T00:43:25;95300.88;;;3.62;100.00
40650;BME280;26342;42.826;23.992;2022-12-07T00:45:50;95296.00;;;3.66;100.00
40650;BME280;26342;42.826;23.992;2022-12-07T00:48:16;95296.34;;;3.69;100.00
40650;BME280;26342;42.826;23.992;2022-12-07T00:50:41;95297.97;;;3.70;100.00
40650;BME280;26342;42.826;23.992;2022-12-07T00:53:07;95302.22;;;3.71;100.00
40650;BME280;26342;42.826;23.992;2022-12-07T00:55:33;95294.47;;;3.76;100.00
40650;BME280;26342;42.826;23.992;2022-12-07T00:57:58;95281.28;;;3.76;100.00
40650;BME280;26342;42.826;23.992;2022-12-07T01:00:24;95281.84;;;3.78;100.00
40650;BME280;26342;42.826;23.992;2022-12-07T01:02:49;95288.78;;;3.79;100.00
40650;BME280;26342;42.826;23.992;2022-12-07T01:05:15;95279.16;;;3.85;100.00
40650;BME280;26342;42.826;23.992;2022-12-07T01:07:40;95288.28;;;3.89;100.00
40650;BME280;26342;42.826;23.992;2022-12-07T01:10:06;95290.47;;;3.92;100.00
40650;BME280;26342;42.826;23.992;2022-12-07T01:12:32;95301.44;;;3.96;100.00
40650;BME280;26342;42.826;23.992;2022-12-07T01:14:57;95301.25;;;3.90;100.00
40650;BME280;26342;42.826;23.992;2022-12-07T01:17:22;95290.47;;;3.92;100.00
40650;BME280;26342;42.826;23.992;2022-12-07T01:19:48;95283.81;;;3.89;100.00
40650;BME280;26342;42.826;23.992;2022-12-07T01:22:13;95272.16;;;3.97;100.00
40650;BME280;26342;42.826;23.992;2022-12-07T01:24:39;95288.13;;;4.02;100.00
40650;BME280;26342;42.826;23.992;2022-12-07T01:27:04;95272.69;;;4.06;100.00
40650;BME280;26342;42.826;23.992;2022-12-07T01:29:29;95277.66;;;3.96;100.00
40650;BME280;26342;42.826;23.992;2022-12-07T01:31:55;95282.06;;;4.02;100.00
40650;BME280;26342;42.826;23.992;2022-12-07T01:34:21;95271.72;;;4.00;100.00
40650;BME280;26342;42.826;23.992;2022-12-07T01:36:47;95260.91;;;3.83;100.00
40650;BME280;26342;42.826;23.992;2022-12-07T01:39:12;95259.81;;;3.91;100.00
40650;BME280;26342;42.826;23.992;2022-12-07T01:41:40;95266.06;;;3.97;100.00
40650;BME280;26342;42.826;23.992;2022-12-07T01:44:23;95267.31;;;3.94;100.00
40650;BME280;26342;42.826;23.992;2022-12-07T01:47:00;95268.66;;;4.03;100.00
40650;BME280;26342;42.826;23.992;2022-12-07T01:52:01;95250.88;;;3.92;100.00
40650;BME280;26342;42.826;23.992;2022-12-07T01:54:29;95253.91;;;3.96;100.00
40650;BME280;26342;42.826;23.992;2022-12-07T01:56:56;95257.94;;;3.98;100.00
40650;BME280;26342;42.826;23.992;2022-12-07T01:59:23;95265.84;;;3.98;100.00
40650;BME280;26342;42.826;23.992;2022-12-07T02:01:51;95257.78;;;3.93;100.00
40650;BME280;26342;42.826;23.992;2022-12-07T02:04:17;95250.88;;;3.92;100.00
40650;BME280;26342;42.826;23.992;2022-12-07T02:06:43;95244.00;;;3.91;100.00
40650;BME280;26342;42.826;23.992;2022-12-07T02:09:10;95235.31;;;3.84;100.00
40650;BME280;26342;42.826;23.992;2022-12-07T02:11:35;95233.06;;;3.87;100.00
40650;BME280;26342;42.826;23.992;2022-12-07T02:14:01;95229.91;;;3.97;100.00
40650;BME280;26342;42.826;23.992;2022-12-07T02:25:13;95239.91;;;3.95;100.00
40650;BME280;26342;42.826;23.992;2022-12-07T02:28:05;95235.63;;;3.94;100.00
40650;BME280;26342;42.826;23.992;2022-12-07T02:30:35;95234.53;;;4.02;100.00
40650;BME280;26342;42.826;23.992;2022-12-07T02:33:08;95238.59;;;4.04;100.00
40650;BME280;26342;42.826;23.992;2022-12-07T02:35:51;95237.97;;;4.02;100.00
40650;BME280;26342;42.826;23.992;2022-12-07T02:38:36;95232.13;;;4.00;100.00
40650;BME280;26342;42.826;23.992;2022-12-07T02:41:07;95230.06;;;4.02;100.00
40650;BME280;26342;42.826;23.992;2022-12-07T02:43:42;95236.53;;;4.06;100.00
40650;BME280;26342;42.826;23.992;2022-12-07T02:46:09;95239.75;;;4.08;100.00
40650;BME280;26342;42.826;23.992;2022-12-07T02:48:37;95241.41;;;4.03;100.00
40650;BME280;26342;42.826;23.992;2022-12-07T02:51:04;95235.78;;;3.81;100.00
40650;BME280;26342;42.826;23.992;2022-12-07T02:53:36;95247.50;;;3.85;100.00
40650;BME280;26342;42.826;23.992;2022-12-07T03:18:40;95218.88;;;3.63;100.00
40650;BME280;26342;42.826;23.992;2022-12-07T03:21:11;95223.41;;;3.56;100.00
40650;BME280;26342;42.826;23.992;2022-12-07T03:23:40;95228.59;;;3.63;100.00
40650;BME280;26342;42.826;23.992;2022-12-07T03:26:09;95227.00;;;3.62;100.00
40650;BME280;26342;42.826;23.992;2022-12-07T03:28:39;95229.69;;;3.55;100.00
40650;BME280;26342;42.826;23.992;2022-12-07T03:31:11;95234.28;;;3.67;100.00
40650;BME280;26342;42.826;23.992;2022-12-07T03:33:49;95227.16;;;3.67;100.00
40650;BME280;26342;42.826;23.992;2022-12-07T03:39:14;95230.53;;;3.74;100.00
40650;BME280;26342;42.826;23.992;2022-12-07T03:41:43;95210.13;;;3.63;100.00
40650;BME280;26342;42.826;23.992;2022-12-07T03:44:09;95227.31;;;3.72;100.00
40650;BME280;26342;42.826;23.992;2022-12-07T03:46:42;95228.28;;;3.78;100.00
40650;BME280;26342;42.826;23.992;2022-12-07T03:49:27;95228.50;;;3.76;100.00
40650;BME280;26342;42.826;23.992;2022-12-07T03:54:36;95231.06;;;3.83;100.00
40650;BME280;26342;42.826;23.992;2022-12-07T03:57:04;95216.78;;;3.72;100.00
40650;BME280;26342;42.826;23.992;2022-12-07T03:59:30;95233.13;;;3.81;100.00
40650;BME280;26342;42.826;23.992;2022-12-07T04:02:01;95236.00;;;3.79;100.00
40650;BME280;26342;42.826;23.992;2022-12-07T04:04:27;95226.25;;;3.80;100.00
40650;BME280;26342;42.826;23.992;2022-12-07T04:06:53;95222.13;;;3.84;100.00
40650;BME280;26342;42.826;23.992;2022-12-07T04:09:18;95221.84;;;3.92;100.00
40650;BME280;26342;42.826;23.992;2022-12-07T04:11:44;95220.38;;;3.96;100.00
40650;BME280;26342;42.826;23.992;2022-12-07T04:14:09;95207.03;;;3.91;100.00
40650;BME280;26342;42.826;23.992;2022-12-07T04:17:04;95212.59;;;4.01;100.00
40650;BME280;26342;42.826;23.992;2022-12-07T04:19:31;95207.78;;;3.98;100.00
40650;BME280;26342;42.826;23.992;2022-12-07T04:21:59;95209.59;;;3.98;100.00
40650;BME280;26342;42.826;23.992;2022-12-07T04:24:25;95211.78;;;4.01;100.00
40650;BME280;26342;42.826;23.992;2022-12-07T04:26:50;95212.38;;;4.03;100.00
40650;BME280;26342;42.826;23.992;2022-12-07T04:29:16;95209.38;;;3.99;100.00
40650;BME280;26342;42.826;23.992;2022-12-07T04:31:43;95206.00;;;3.92;100.00
40650;BME280;26342;42.826;23.992;2022-12-07T04:34:09;95204.75;;;3.95;100.00
40650;BME280;26342;42.826;23.992;2022-12-07T04:36:35;95209.59;;;3.98;100.00
40650;BME280;26342;42.826;23.992;2022-12-07T04:39:01;95212.25;;;3.98;100.00
40650;BME280;26342;42.826;23.992;2022-12-07T04:41:27;95207.19;;;3.96;100.00
40650;BME280;26342;42.826;23.992;2022-12-07T04:46:20;95198.59;;;3.82;100.00
40650;BME280;26342;42.826;23.992;2022-12-07T04:48:45;95197.41;;;3.78;100.00
40650;BME280;26342;42.826;23.992;2022-12-07T04:51:11;95208.13;;;3.83;100.00
40650;BME280;26342;42.826;23.992;2022-12-07T04:53:36;95199.41;;;3.83;100.00
40650;BME280;26342;42.826;23.992;2022-12-07T04:56:02;95199.84;;;3.80;100.00
40650;BME280;26342;42.826;23.992;2022-12-07T04:58:27;95204.31;;;3.79;100.00
40650;BME280;26342;42.826;23.992;2022-12-07T05:00:56;95190.84;;;3.62;100.00
40650;BME280;26342;42.826;23.992;2022-12-07T05:03:21;95206.22;;;3.72;100.00
40650;BME280;26342;42.826;23.992;2022-12-07T05:05:47;95208.94;;;3.84;100.00
40650;BME280;26342;42.826;23.992;2022-12-07T05:08:12;95213.63;;;3.82;100.00
40650;BME280;26342;42.826;23.992;2022-12-07T05:10:37;95204.38;;;3.73;100.00
40650;BME280;26342;42.826;23.992;2022-12-07T05:13:03;95212.50;;;3.71;100.00
40650;BME280;26342;42.826;23.992;2022-12-07T05:15:28;95216.16;;;3.70;100.00
40650;BME280;26342;42.826;23.992;2022-12-07T05:17:54;95192.75;;;3.55;100.00
40650;BME280;26342;42.826;23.992;2022-12-07T05:20:19;95208.69;;;3.67;100.00
40650;BME280;26342;42.826;23.992;2022-12-07T05:22:44;95204.56;;;3.71;100.00
40650;BME280;26342;42.826;23.992;2022-12-07T05:25:10;95202.09;;;3.76;100.00
40650;BME280;26342;42.826;23.992;2022-12-07T05:27:35;95205.03;;;3.86;100.00
40650;BME280;26342;42.826;23.992;2022-12-07T05:30:01;95205.47;;;3.83;100.00
40650;BME280;26342;42.826;23.992;2022-12-07T05:32:26;95199.69;;;3.75;100.00
40650;BME280;26342;42.826;23.992;2022-12-07T05:34:51;95201.50;;;3.74;100.00
40650;BME280;26342;42.826;23.992;2022-12-07T05:37:19;95204.00;;;3.69;100.00
40650;BME280;26342;42.826;23.992;2022-12-07T05:39:45;95203.63;;;3.66;100.00
40650;BME280;26342;42.826;23.992;2022-12-07T05:42:10;95194.97;;;3.58;100.00
40650;BME280;26342;42.826;23.992;2022-12-07T05:44:44;95200.41;;;3.63;100.00
40650;BME280;26342;42.826;23.992;2022-12-07T05:47:11;95190.66;;;3.64;100.00
40650;BME280;26342;42.826;23.992;2022-12-07T05:49:37;95188.81;;;3.64;100.00
40650;BME280;26342;42.826;23.992;2022-12-07T05:52:03;95185.97;;;3.66;100.00
40650;BME280;26342;42.826;23.992;2022-12-07T05:54:29;95191.25;;;3.66;100.00
40650;BME280;26342;42.826;23.992;2022-12-07T05:56:54;95189.25;;;3.61;100.00
40650;BME280;26342;42.826;23.992;2022-12-07T05:59:20;95183.66;;;3.51;100.00
40650;BME280;26342;42.826;23.992;2022-12-07T06:02:02;95189.91;;;3.57;100.00
40650;BME280;26342;42.826;23.992;2022-12-07T06:04:31;95186.53;;;3.50;100.00
40650;BME280;26342;42.826;23.992;2022-12-07T06:06:58;95182.47;;;3.47;100.00
40650;BME280;26342;42.826;23.992;2022-12-07T06:09:24;95193.19;;;3.52;100.00
40650;BME280;26342;42.826;23.992;2022-12-07T06:11:50;95188.31;;;3.56;100.00
40650;BME280;26342;42.826;23.992;2022-12-07T06:14:35;95189.97;;;3.50;100.00
40650;BME280;26342;42.826;23.992;2022-12-07T06:17:00;95195.81;;;3.52;100.00
40650;BME280;26342;42.826;23.992;2022-12-07T06:19:26;95189.81;;;3.45;100.00
40650;BME280;26342;42.826;23.992;2022-12-07T06:21:52;95192.22;;;3.47;100.00
40650;BME280;26342;42.826;23.992;2022-12-07T06:24:17;95197.88;;;3.50;100.00
40650;BME280;26342;42.826;23.992;2022-12-07T06:26:43;95189.97;;;3.50;100.00
40650;BME280;26342;42.826;23.992;2022-12-07T06:29:10;95187.97;;;3.46;100.00
40650;BME280;26342;42.826;23.992;2022-12-07T06:31:36;95203.38;;;3.49;100.00
40650;BME280;26342;42.826;23.992;2022-12-07T06:34:04;95198.28;;;3.47;100.00
40650;BME280;26342;42.826;23.992;2022-12-07T06:36:30;95190.25;;;3.42;100.00
40650;BME280;26342;42.826;23.992;2022-12-07T06:38:56;95196.50;;;3.48;100.00
40650;BME280;26342;42.826;23.992;2022-12-07T06:41:22;95195.66;;;3.47;100.00
40650;BME280;26342;42.826;23.992;2022-12-07T06:43:48;95198.25;;;3.54;100.00
40650;BME280;26342;42.826;23.992;2022-12-07T06:46:14;95196.06;;;3.51;100.00
40650;BME280;26342;42.826;23.992;2022-12-07T06:48:41;95187.03;;;3.40;100.00
40650;BME280;26342;42.826;23.992;2022-12-07T06:51:06;95204.72;;;3.58;100.00
40650;BME280;26342;42.826;23.992;2022-12-07T06:53:32;95214.41;;;3.64;100.00
40650;BME280;26342;42.826;23.992;2022-12-07T06:55:57;95208.91;;;3.66;100.00
40650;BME280;26342;42.826;23.992;2022-12-07T06:58:23;95209.31;;;3.62;100.00
40650;BME280;26342;42.826;23.992;2022-12-07T07:00:49;95212.56;;;3.64;100.00
40650;BME280;26342;42.826;23.992;2022-12-07T07:03:15;95187.69;;;3.54;100.00
40650;BME280;26342;42.826;23.992;2022-12-07T07:05:42;95200.53;;;3.69;100.00
40650;BME280;26342;42.826;23.992;2022-12-07T07:08:07;95218.09;;;3.81;100.00
40650;BME280;26342;42.826;23.992;2022-12-07T07:10:33;95208.94;;;3.84;100.00
40650;BME280;26342;42.826;23.992;2022-12-07T07:12:58;95216.56;;;3.92;100.00
40650;BME280;26342;42.826;23.992;2022-12-07T07:15:24;95214.38;;;3.89;100.00
40650;BME280;26342;42.826;23.992;2022-12-07T07:17:49;95208.94;;;3.84;100.00
40650;BME280;26342;42.826;23.992;2022-12-07T07:20:15;95214.72;;;3.92;100.00
40650;BME280;26342;42.826;23.992;2022-12-07T07:22:40;95212.03;;;3.99;100.00
40650;BME280;26342;42.826;23.992;2022-12-07T07:25:06;95216.66;;;4.04;100.00
40650;BME280;26342;42.826;23.992;2022-12-07T07:27:31;95213.28;;;4.15;100.00
40650;BME280;26342;42.826;23.992;2022-12-07T07:29:57;95218.63;;;4.27;100.00
40650;BME280;26342;42.826;23.992;2022-12-07T07:32:22;95208.59;;;4.35;100.00
40650;BME280;26342;42.826;23.992;2022-12-07T07:34:48;95214.22;;;4.39;100.00
40650;BME280;26342;42.826;23.992;2022-12-07T07:37:13;95211.03;;;4.48;100.00
40650;BME280;26342;42.826;23.992;2022-12-07T07:39:39;95202.22;;;4.55;100.00
40650;BME280;26342;42.826;23.992;2022-12-07T07:42:05;95204.56;;;4.63;100.00
40650;BME280;26342;42.826;23.992;2022-12-07T07:44:31;95206.09;;;4.70;100.00
40650;BME280;26342;42.826;23.992;2022-12-07T07:46:56;95209.09;;;4.74;100.00
40650;BME280;26342;42.826;23.992;2022-12-07T07:49:21;95210.34;;;4.71;100.00
40650;BME280;26342;42.826;23.992;2022-12-07T07:51:47;95207.16;;;4.81;100.00
40650;BME280;26342;42.826;23.992;2022-12-07T07:54:13;95213.97;;;4.89;100.00
40650;BME280;26342;42.826;23.992;2022-12-07T07:56:39;95201.53;;;4.89;100.00
40650;BME280;26342;42.826;23.992;2022-12-07T07:59:04;95206.75;;;4.96;100.00
40650;BME280;26342;42.826;23.992;2022-12-07T08:01:30;95207.69;;;5.01;100.00
40650;BME280;26342;42.826;23.992;2022-12-07T08:03:55;95213.13;;;5.07;100.00
40650;BME280;26342;42.826;23.992;2022-12-07T08:06:20;95208.88;;;5.17;100.00
40650;BME280;26342;42.826;23.992;2022-12-07T08:08:46;95200.16;;;5.17;100.00
40650;BME280;26342;42.826;23.992;2022-12-07T08:11:11;95196.00;;;5.21;100.00
40650;BME280;26342;42.826;23.992;2022-12-07T08:13:37;95210.16;;;5.26;100.00
40650;BME280;26342;42.826;23.992;2022-12-07T08:16:04;95216.41;;;5.32;100.00
40650;BME280;26342;42.826;23.992;2022-12-07T08:18:30;95207.75;;;5.37;100.00
40650;BME280;26342;42.826;23.992;2022-12-07T08:20:59;95201.78;;;5.41;100.00
40650;BME280;26342;42.826;23.992;2022-12-07T08:23:26;95195.81;;;5.46;100.00
40650;BME280;26342;42.826;23.992;2022-12-07T08:25:51;95199.63;;;5.50;100.00
40650;BME280;26342;42.826;23.992;2022-12-07T08:28:17;95201.47;;;5.61;100.00
40650;BME280;26342;42.826;23.992;2022-12-07T08:30:42;95191.81;;;5.78;100.00
40650;BME280;26342;42.826;23.992;2022-12-07T08:33:09;95194.66;;;5.88;100.00
40650;BME280;26342;42.826;23.992;2022-12-07T08:35:35;95199.06;;;5.95;100.00
40650;BME280;26342;42.826;23.992;2022-12-07T08:38:01;95185.13;;;5.99;100.00
40650;BME280;26342;42.826;23.992;2022-12-07T08:40:27;95195.84;;;6.04;100.00
40650;BME280;26342;42.826;23.992;2022-12-07T08:42:53;95195.97;;;6.09;100.00
40650;BME280;26342;42.826;23.992;2022-12-07T08:45:20;95188.19;;;6.31;100.00
40650;BME280;26342;42.826;23.992;2022-12-07T08:47:56;95191.34;;;6.57;100.00
40650;BME280;26342;42.826;23.992;2022-12-07T08:50:23;95180.25;;;6.60;100.00
40650;BME280;26342;42.826;23.992;2022-12-07T08:52:55;95186.78;;;6.69;100.00
40650;BME280;26342;42.826;23.992;2022-12-07T08:55:22;95178.38;;;6.72;100.00
40650;BME280;26342;42.826;23.992;2022-12-07T08:57:48;95176.06;;;6.76;100.00
40650;BME280;26342;42.826;23.992;2022-12-07T09:00:15;95175.34;;;6.80;100.00
40650;BME280;26342;42.826;23.992;2022-12-07T09:02:43;95170.84;;;6.81;100.00
40650;BME280;26342;42.826;23.992;2022-12-07T09:05:09;95173.97;;;6.78;100.00
40650;BME280;26342;42.826;23.992;2022-12-07T09:07:35;95175.66;;;6.84;100.00
40650;BME280;26342;42.826;23.992;2022-12-07T09:10:02;95165.16;;;6.89;100.00
40650;BME280;26342;42.826;23.992;2022-12-07T09:12:28;95150.72;;;6.96;100.00
40650;BME280;26342;42.826;23.992;2022-12-07T09:14:53;95149.72;;;7.03;100.00
40650;BME280;26342;42.826;23.992;2022-12-07T09:17:18;95150.31;;;7.21;100.00
40650;BME280;26342;42.826;23.992;2022-12-07T09:19:44;95154.75;;;7.33;100.00
40650;BME280;26342;42.826;23.992;2022-12-07T09:22:09;95147.97;;;7.42;100.00
40650;BME280;26342;42.826;23.992;2022-12-07T09:24:35;95151.06;;;7.50;100.00
40650;BME280;26342;42.826;23.992;2022-12-07T09:27:01;95144.19;;;7.54;100.00
40650;BME280;26342;42.826;23.992;2022-12-07T09:29:26;95151.09;;;7.72;100.00
40650;BME280;26342;42.826;23.992;2022-12-07T09:31:52;95148.81;;;7.81;100.00
40650;BME280;26342;42.826;23.992;2022-12-07T09:34:18;95137.78;;;7.89;100.00
40650;BME280;26342;42.826;23.992;2022-12-07T09:36:43;95130.75;;;8.00;100.00
40650;BME280;26342;42.826;23.992;2022-12-07T09:39:09;95127.66;;;8.08;100.00
40650;BME280;26342;42.826;23.992;2022-12-07T09:41:38;95128.28;;;8.15;100.00
40650;BME280;26342;42.826;23.992;2022-12-07T09:44:07;95131.69;;;8.10;100.00
40650;BME280;26342;42.826;23.992;2022-12-07T09:46:41;95122.38;;;8.30;100.00
40650;BME280;26342;42.826;23.992;2022-12-07T09:49:19;95113.47;;;8.41;100.00
40650;BME280;26342;42.826;23.992;2022-12-07T09:51:45;95118.41;;;8.54;100.00
40650;BME280;26342;42.826;23.992;2022-12-07T09:54:16;95112.88;;;8.61;100.00
40650;BME280;26342;42.826;23.992;2022-12-07T09:56:43;95120.84;;;8.61;100.00
40650;BME280;26342;42.826;23.992;2022-12-07T09:59:15;95119.75;;;8.57;100.00
40650;BME280;26342;42.826;23.992;2022-12-07T10:01:42;95116.84;;;8.58;100.00
40650;BME280;26342;42.826;23.992;2022-12-07T10:06:41;95112.00;;;8.77;100.00
40650;BME280;26342;42.826;23.992;2022-12-07T10:09:15;95106.44;;;8.84;100.00
40650;BME280;26342;42.826;23.992;2022-12-07T10:12:10;95102.75;;;8.85;100.00
40650;BME280;26342;42.826;23.992;2022-12-07T10:15:08;95115.50;;;8.83;100.00
40650;BME280;26342;42.826;23.992;2022-12-07T10:17:41;95105.97;;;8.87;100.00
40650;BME280;26342;42.826;23.992;2022-12-07T10:20:23;95105.25;;;8.97;100.00
40650;BME280;26342;42.826;23.992;2022-12-07T10:25:33;95094.69;;;9.07;100.00
40650;BME280;26342;42.826;23.992;2022-12-07T10:28:18;95079.84;;;9.16;100.00
40650;BME280;26342;42.826;23.992;2022-12-07T10:30:59;95083.94;;;9.29;100.00
40650;BME280;26342;42.826;23.992;2022-12-07T10:36:30;95068.69;;;9.56;100.00
40650;BME280;26342;42.826;23.992;2022-12-07T10:41:25;95049.38;;;9.81;100.00
40650;BME280;26342;42.826;23.992;2022-12-07T10:43:53;95045.69;;;9.92;100.00
40650;BME280;26342;42.826;23.992;2022-12-07T10:46:38;95051.53;;;9.94;100.00
40650;BME280;26342;42.826;23.992;2022-12-07T10:54:40;95044.72;;;10.14;100.00
40650;BME280;26342;42.826;23.992;2022-12-07T11:02:36;95040.53;;;10.28;100.00
40650;BME280;26342;42.826;23.992;2022-12-07T11:11:09;95027.41;;;10.21;100.00
40650;BME280;26342;42.826;23.992;2022-12-07T11:13:52;95025.59;;;10.27;100.00
40650;BME280;26342;42.826;23.992;2022-12-07T11:16:56;95019.47;;;10.37;100.00
40650;BME280;26342;42.826;23.992;2022-12-07T11:25:43;95011.47;;;10.47;100.00
40650;BME280;26342;42.826;23.992;2022-12-07T11:36:49;94996.84;;;10.70;100.00
40650;BME280;26342;42.826;23.992;2022-12-07T11:41:52;95001.66;;;10.98;100.00
40650;BME280;26342;42.826;23.992;2022-12-07T11:47:06;94990.41;;;11.16;100.00
40650;BME280;26342;42.826;23.992;2022-12-07T11:49:39;94991.72;;;11.34;100.00
40650;BME280;26342;42.826;23.992;2022-12-07T11:52:32;94983.66;;;11.55;100.00
40650;BME280;26342;42.826;23.992;2022-12-07T11:54:57;94973.44;;;11.67;100.00
40650;BME280;26342;42.826;23.992;2022-12-07T11:57:37;94952.28;;;11.75;95.89
40650;BME280;26342;42.826;23.992;2022-12-07T12:00:08;94960.06;;;11.82;99.71
40650;BME280;26342;42.826;23.992;2022-12-07T12:05:21;94975.22;;;11.97;97.44
40650;BME280;26342;42.826;23.992;2022-12-07T12:07:57;94969.31;;;12.00;96.34
40650;BME280;26342;42.826;23.992;2022-12-07T12:21:26;94952.75;;;12.03;94.74
40650;BME280;26342;42.826;23.992;2022-12-07T12:24:18;94941.84;;;11.89;92.07
40650;BME280;26342;42.826;23.992;2022-12-07T12:27:01;94948.50;;;11.92;93.79
40650;BME280;26342;42.826;23.992;2022-12-07T12:29:32;94945.59;;;11.93;93.56
40650;BME280;26342;42.826;23.992;2022-12-07T12:34:58;94941.34;;;11.77;92.30
40650;BME280;26342;42.826;23.992;2022-12-07T12:42:49;94948.22;;;11.98;92.75
40650;BME280;26342;42.826;23.992;2022-12-07T12:45:32;94948.19;;;12.09;91.24
40650;BME280;26342;42.826;23.992;2022-12-07T12:50:36;94947.63;;;12.12;90.62
40650;BME280;26342;42.826;23.992;2022-12-07T12:53:12;94950.84;;;12.09;90.61
40650;BME280;26342;42.826;23.992;2022-12-07T13:03:51;94962.44;;;11.89;92.83
40650;BME280;26342;42.826;23.992;2022-12-07T13:08:49;94963.78;;;11.76;93.88
40650;BME280;26342;42.826;23.992;2022-12-07T13:11:20;94955.81;;;11.71;94.11
40650;BME280;26342;42.826;23.992;2022-12-07T13:13:50;94952.63;;;11.64;94.69
40650;BME280;26342;42.826;23.992;2022-12-07T13:18:41;94945.44;;;11.54;96.47
40650;BME280;26342;42.826;23.992;2022-12-07T13:23:54;94947.34;;;11.43;99.22
40650;BME280;26342;42.826;23.992;2022-12-07T13:31:49;94951.34;;;11.41;100.00
40650;BME280;26342;42.826;23.992;2022-12-07T13:34:39;94945.50;;;11.34;99.84
40650;BME280;26342;42.826;23.992;2022-12-07T13:37:25;94949.00;;;11.24;99.54
40650;BME280;26342;42.826;23.992;2022-12-07T13:39:55;94935.94;;;11.23;100.00
40650;BME280;26342;42.826;23.992;2022-12-07T13:42:32;94943.94;;;11.17;100.00
40650;BME280;26342;42.826;23.992;2022-12-07T13:45:00;94945.81;;;11.12;100.00
40650;BME280;26342;42.826;23.992;2022-12-07T13:49:57;94950.09;;;11.03;100.00
40650;BME280;26342;42.826;23.992;2022-12-07T13:52:30;94949.56;;;11.01;100.00
40650;BME280;26342;42.826;23.992;2022-12-07T13:54:59;94956.28;;;10.98;100.00
40650;BME280;26342;42.826;23.992;2022-12-07T13:57:28;94957.59;;;10.90;100.00
40650;BME280;26342;42.826;23.992;2022-12-07T13:59:56;94950.66;;;10.89;100.00
40650;BME280;26342;42.826;23.992;2022-12-07T14:02:24;94954.13;;;10.85;100.00
40650;BME280;26342;42.826;23.992;2022-12-07T14:04:51;94947.75;;;10.76;100.00
40650;BME280;26342;42.826;23.992;2022-12-07T14:10:22;94950.91;;;10.42;100.00
40650;BME280;26342;42.826;23.992;2022-12-07T14:12:49;94952.22;;;10.19;100.00
40650;BME280;26342;42.826;23.992;2022-12-07T14:15:21;94947.94;;;10.13;100.00
40650;BME280;26342;42.826;23.992;2022-12-07T14:17:53;94946.56;;;9.95;100.00
40650;BME280;26342;42.826;23.992;2022-12-07T14:20:37;94954.25;;;9.82;100.00
40650;BME280;26342;42.826;23.992;2022-12-07T14:23:04;94956.84;;;9.71;100.00
40650;BME280;26342;42.826;23.992;2022-12-07T14:25:50;94955.53;;;9.64;100.00
40650;BME280;26342;42.826;23.992;2022-12-07T14:28:30;94959.44;;;9.51;100.00
40650;BME280;26342;42.826;23.992;2022-12-07T14:30:57;94955.13;;;9.40;100.00
40650;BME280;26342;42.826;23.992;2022-12-07T14:33:23;94960.13;;;9.31;100.00
40650;BME280;26342;42.826;23.992;2022-12-07T14:35:49;94954.69;;;9.06;100.00
40650;BME280;26342;42.826;23.992;2022-12-07T14:38:15;94963.41;;;8.96;100.00
40650;BME280;26342;42.826;23.992;2022-12-07T14:40:41;94970.22;;;8.82;100.00
40650;BME280;26342;42.826;23.992;2022-12-07T14:43:12;94967.97;;;8.68;100.00
40650;BME280;26342;42.826;23.992;2022-12-07T14:45:39;94968.50;;;8.65;100.00
40650;BME280;26342;42.826;23.992;2022-12-07T14:48:06;94977.69;;;8.53;100.00
40650;BME280;26342;42.826;23.992;2022-12-07T14:50:36;94973.16;;;8.48;100.00
40650;BME280;26342;42.826;23.992;2022-12-07T14:53:09;94965.91;;;8.44;100.00
40650;BME280;26342;42.826;23.992;2022-12-07T14:55:36;94961.00;;;8.30;100.00
40650;BME280;26342;42.826;23.992;2022-12-07T14:58:01;94971.69;;;8.35;100.00
40650;BME280;26342;42.826;23.992;2022-12-07T15:00:28;94964.47;;;8.31;100.00
40650;BME280;26342;42.826;23.992;2022-12-07T15:02:54;94973.72;;;8.28;100.00
40650;BME280;26342;42.826;23.992;2022-12-07T15:05:19;94966.25;;;8.25;100.00
40650;BME280;26342;42.826;23.992;2022-12-07T15:07:46;94975.78;;;8.21;100.00
40650;BME280;26342;42.826;23.992;2022-12-07T15:10:27;94972.03;;;8.17;100.00
40650;BME280;26342;42.826;23.992;2022-12-07T15:13:00;94975.34;;;8.02;100.00
40650;BME280;26342;42.826;23.992;2022-12-07T15:15:44;94986.06;;;7.86;100.00
40650;BME280;26342;42.826;23.992;2022-12-07T15:18:10;94981.44;;;7.76;100.00
40650;BME280;26342;42.826;23.992;2022-12-07T15:20:35;94977.66;;;7.72;100.00